Time;durP1;ratioP1;P1;durP2;ratioP2;P2;SDS_P1;SDS_P2;PMS_P1;PMS_P2;Temp;Humidity;BMP_temperature;BMP_pressure;BME280_temperature;BME280_humidity;BME280_pressure;Samples;Min_cycle;Max_cycle;Signal;HPM_P1;HPM_P2
2023/03/07 00:00:36;;;;;;;18.63;8.60;;;;;;;-1.26;73.47;99886.72;4997217;28;20061;-60
2023/03/07 00:03:02;;;;;;;27.20;10.00;;;;;;;-1.28;73.45;99883.31;4995572;28;20084;-58
2023/03/07 00:05:27;;;;;;;22.77;11.77;;;;;;;-1.28;73.76;99880.72;4997232;28;20070;-56
2023/03/07 00:07:53;;;;;;;22.02;9.57;;;;;;;-1.28;73.50;99878.16;4996893;28;20060;-55
2023/03/07 00:10:18;;;;;;;23.02;10.05;;;;;;;-1.29;73.81;99875.63;4993328;28;20042;-56
2023/03/07 00:12:44;;;;;;;22.00;9.98;;;;;;;-1.29;73.44;99878.19;5000889;28;20066;-54
2023/03/07 00:15:10;;;;;;;23.15;9.48;;;;;;;-1.33;73.82;99872.28;5005076;28;20103;-59
2023/03/07 00:17:36;;;;;;;17.25;7.38;;;;;;;-1.33;73.84;99874.84;4997946;28;20100;-55
2023/03/07 00:20:06;;;;;;;21.40;9.20;;;;;;;-1.33;73.20;99868.81;5000619;28;20104;-55
2023/03/07 00:22:35;;;;;;;21.42;8.57;;;;;;;-1.35;73.75;99863.69;5001233;28;21408;-57
2023/03/07 00:25:01;;;;;;;19.63;8.98;;;;;;;-1.35;74.07;99865.41;5000264;28;20134;-54
2023/03/07 00:27:28;;;;;;;20.83;9.32;;;;;;;-1.37;73.60;99860.31;5003750;28;21278;-54
2023/03/07 00:29:53;;;;;;;20.20;8.73;;;;;;;-1.45;74.04;99857.06;5000726;28;20143;-56
2023/03/07 00:32:19;;;;;;;19.35;7.95;;;;;;;-1.48;74.01;99852.78;4995019;28;20052;-59
2023/03/07 00:34:45;;;;;;;19.58;9.73;;;;;;;-1.49;73.93;99851.09;4997560;28;20724;-56
2023/03/07 00:37:10;;;;;;;9.65;4.93;;;;;;;-1.51;73.75;99846.88;5001865;28;20047;-57
2023/03/07 00:39:36;;;;;;;22.92;9.02;;;;;;;-1.53;73.65;99844.34;4998796;28;20058;-60
2023/03/07 00:42:01;;;;;;;18.02;8.32;;;;;;;-1.53;74.19;99839.16;4995078;28;20059;-56
2023/03/07 00:44:28;;;;;;;17.55;9.18;;;;;;;-1.52;73.77;99834.84;4999634;28;20070;-60
2023/03/07 00:46:55;;;;;;;20.42;9.25;;;;;;;-1.51;73.77;99826.22;4996206;28;20112;-56
2023/03/07 00:49:20;;;;;;;16.75;7.78;;;;;;;-1.52;73.50;99824.53;5003295;28;20048;-58
2023/03/07 00:51:46;;;;;;;23.67;10.40;;;;;;;-1.58;73.83;99826.34;5003177;28;20059;-55
2023/03/07 00:54:11;;;;;;;20.95;8.52;;;;;;;-1.60;74.35;99812.66;5007088;28;20079;-60
2023/03/07 00:56:37;;;;;;;23.77;9.57;;;;;;;-1.57;74.18;99809.16;4997281;28;20056;-59
2023/03/07 00:59:02;;;;;;;18.98;8.93;;;;;;;-1.55;73.73;99803.06;5003031;28;20049;-57
2023/03/07 01:01:28;;;;;;;19.75;8.85;;;;;;;-1.51;74.04;99803.00;5007308;28;20043;-58
2023/03/07 01:03:54;;;;;;;13.27;5.65;;;;;;;-1.47;73.94;99799.47;4997411;28;20070;-60
2023/03/07 01:06:23;;;;;;;16.40;8.43;;;;;;;-1.38;74.24;99797.53;5001049;28;20052;-54
2023/03/07 01:08:49;;;;;;;17.73;8.45;;;;;;;-1.26;73.47;99798.94;4994987;28;20549;-54
2023/03/07 01:11:14;;;;;;;13.98;6.35;;;;;;;-1.14;73.57;99779.72;4998906;28;20053;-56
2023/03/07 01:13:40;;;;;;;17.60;7.22;;;;;;;-1.01;74.04;99785.44;4993652;28;20069;-59
2023/03/07 01:16:18;;;;;;;16.10;7.97;;;;;;;-0.87;73.46;99784.25;5003563;28;20580;-56
2023/03/07 01:18:47;;;;;;;17.77;8.48;;;;;;;-0.76;73.81;99769.31;4987981;28;20066;-55
2023/03/07 01:21:27;;;;;;;17.27;8.38;;;;;;;-0.67;73.35;99766.47;4996462;28;20052;-58
2023/03/07 01:23:53;;;;;;;16.45;7.90;;;;;;;-0.58;73.65;99761.94;5008203;28;20083;-54
2023/03/07 01:26:22;;;;;;;22.15;8.50;;;;;;;-0.53;73.38;99754.94;5009075;28;20732;-56
2023/03/07 01:28:49;;;;;;;23.48;9.88;;;;;;;-0.48;73.45;99747.88;5008858;28;20045;-55
2023/03/07 01:31:15;;;;;;;30.25;11.43;;;;;;;-0.44;73.68;99741.75;5002583;28;20069;-55
2023/03/07 01:33:41;;;;;;;30.75;10.73;;;;;;;-0.39;73.11;99742.47;4998159;28;20061;-56
2023/03/07 01:36:20;;;;;;;28.98;12.35;;;;;;;-0.32;73.51;99725.88;4994328;28;20567;-55
2023/03/07 01:38:46;;;;;;;32.15;11.77;;;;;;;-0.29;73.31;99722.34;5003110;28;20050;-53
2023/03/07 01:41:12;;;;;;;25.75;10.48;;;;;;;-0.26;73.64;99722.25;4992473;28;20046;-54
2023/03/07 01:43:37;;;;;;;21.10;10.07;;;;;;;-0.23;73.69;99716.16;4992422;28;20436;-59
2023/03/07 01:46:15;;;;;;;24.45;9.35;;;;;;;-0.22;73.11;99707.50;4994886;28;20060;-57
2023/03/07 01:48:41;;;;;;;25.02;9.98;;;;;;;-0.22;73.58;99702.31;5000523;28;20040;-58
2023/03/07 01:51:07;;;;;;;21.20;9.02;;;;;;;-0.21;73.36;99706.59;5003920;28;20048;-57
2023/03/07 01:53:33;;;;;;;22.85;8.43;;;;;;;-0.20;73.17;99698.81;4992970;28;20406;-56
2023/03/07 01:55:58;;;;;;;17.92;7.30;;;;;;;-0.16;73.88;99696.97;4996743;28;20052;-57
2023/03/07 01:58:24;;;;;;;18.63;7.97;;;;;;;-0.17;73.78;99685.81;4993661;28;20075;-57
2023/03/07 02:00:50;;;;;;;19.60;8.68;;;;;;;-0.12;73.70;99684.78;4994998;28;20049;-60
2023/03/07 02:03:21;;;;;;;22.38;8.25;;;;;;;-0.07;73.19;99680.34;4994087;28;20201;-56
2023/03/07 02:05:54;;;;;;;22.58;9.82;;;;;;;-0.05;73.73;99676.78;4998738;28;20666;-54
2023/03/07 02:08:22;;;;;;;21.58;7.80;;;;;;;-0.05;73.74;99674.22;4991275;28;20089;-59
2023/03/07 02:10:48;;;;;;;16.77;6.28;;;;;;;-0.05;73.86;99671.63;5001503;28;20037;-56
2023/03/07 02:13:14;;;;;;;17.25;7.90;;;;;;;-0.03;73.25;99656.06;4998250;28;20105;-55
2023/03/07 02:15:39;;;;;;;14.52;5.93;;;;;;;0.02;73.84;99655.94;4994102;28;20034;-55
2023/03/07 02:18:06;;;;;;;17.20;7.30;;;;;;;0.01;74.02;99657.66;4994560;28;20057;-54
2023/03/07 02:20:41;;;;;;;17.25;7.50;;;;;;;0.02;74.10;99653.34;5000242;28;20048;-57
2023/03/07 02:23:12;;;;;;;15.38;6.40;;;;;;;0.04;74.32;99643.78;5010581;28;20066;-58
2023/03/07 02:26:00;;;;;;;14.55;7.00;;;;;;;0.06;73.84;99640.25;4998732;28;20071;-57
2023/03/07 02:28:27;;;;;;;14.40;6.68;;;;;;;0.11;73.47;99632.34;4995622;28;20043;-54
2023/03/07 02:30:59;;;;;;;14.95;7.15;;;;;;;0.10;73.51;99621.16;4993476;28;20096;-58
2023/03/07 02:33:25;;;;;;;14.98;7.05;;;;;;;0.09;74.05;99605.66;5005383;28;20133;-57
2023/03/07 02:35:57;;;;;;;14.07;6.95;;;;;;;0.10;74.46;99607.38;4996490;28;20496;-54
2023/03/07 02:38:23;;;;;;;14.00;6.53;;;;;;;0.12;74.24;99598.69;4999115;28;20396;-57
2023/03/07 02:40:52;;;;;;;14.48;7.00;;;;;;;0.13;73.74;99599.50;4985735;28;20046;-55
2023/03/07 02:43:18;;;;;;;14.70;7.55;;;;;;;0.16;74.50;99586.47;4993980;28;20087;-57
2023/03/07 02:45:44;;;;;;;16.45;7.28;;;;;;;0.15;74.37;99588.19;5002514;28;20142;-57
2023/03/07 02:48:09;;;;;;;14.95;7.32;;;;;;;0.20;74.76;99580.31;5005944;28;20104;-53
2023/03/07 02:50:35;;;;;;;17.02;8.65;;;;;;;0.25;73.95;99573.22;4990182;28;20099;-57
2023/03/07 02:53:00;;;;;;;16.98;8.23;;;;;;;0.27;74.68;99571.44;4996498;28;20065;-58
2023/03/07 02:55:26;;;;;;;15.13;7.75;;;;;;;0.32;74.52;99562.69;4992159;28;20048;-54
2023/03/07 02:57:52;;;;;;;15.88;7.68;;;;;;;0.33;74.67;99559.19;4991484;28;20077;-56
2023/03/07 03:00:18;;;;;;;19.25;9.35;;;;;;;0.36;74.83;99549.56;5000061;28;20372;-54
2023/03/07 03:02:44;;;;;;;18.60;9.85;;;;;;;0.37;73.99;99540.09;4998453;28;20138;-58
2023/03/07 03:05:09;;;;;;;17.08;7.97;;;;;;;0.39;74.03;99533.09;5006459;28;20471;-60
2023/03/07 03:07:35;;;;;;;19.75;10.23;;;;;;;0.42;74.55;99533.84;4994356;28;20050;-57
2023/03/07 03:10:00;;;;;;;19.45;9.35;;;;;;;0.46;74.67;99529.41;5001866;28;20044;-57
2023/03/07 03:12:26;;;;;;;20.25;8.95;;;;;;;0.49;74.14;99521.53;5002409;28;20046;-55
2023/03/07 03:14:51;;;;;;;20.42;10.50;;;;;;;0.54;74.22;99511.81;4998535;28;20059;-56
2023/03/07 03:17:17;;;;;;;22.08;9.63;;;;;;;0.55;74.14;99497.16;4995952;28;20080;-57
2023/03/07 03:19:42;;;;;;;26.30;11.32;;;;;;;0.58;74.67;99490.13;5003856;28;20079;-55
2023/03/07 03:22:08;;;;;;;25.67;9.90;;;;;;;0.63;74.23;99489.94;4996561;28;20450;-54
2023/03/07 03:24:38;;;;;;;22.60;10.68;;;;;;;0.68;74.71;99489.81;4998970;28;20115;-56
2023/03/07 03:27:03;;;;;;;23.67;10.55;;;;;;;0.68;74.74;99492.38;4976118;28;20062;-55
2023/03/07 03:29:29;;;;;;;23.42;11.00;;;;;;;0.71;74.07;99492.25;4992197;28;20052;-59
2023/03/07 03:31:55;;;;;;;25.38;11.52;;;;;;;0.75;74.46;99473.13;5002793;28;20061;-56
2023/03/07 03:34:20;;;;;;;24.23;10.50;;;;;;;0.79;73.79;99458.31;4988073;28;20034;-57
2023/03/07 03:36:46;;;;;;;30.30;12.32;;;;;;;0.78;74.66;99467.81;4989142;28;20047;-56
2023/03/07 03:39:13;;;;;;;26.85;11.80;;;;;;;0.81;74.53;99461.69;4988849;28;20366;-53
2023/03/07 03:41:38;;;;;;;25.23;11.93;;;;;;;0.82;74.71;99448.69;4993006;28;20496;-56
2023/03/07 03:44:04;;;;;;;27.77;11.43;;;;;;;0.82;74.17;99448.69;4999391;28;20565;-55
2023/03/07 03:46:30;;;;;;;26.77;11.75;;;;;;;0.84;74.91;99428.72;4987105;28;20156;-58
2023/03/07 03:48:56;;;;;;;27.77;11.20;;;;;;;0.84;74.48;99425.31;4993717;28;20569;-57
2023/03/07 03:51:23;;;;;;;24.80;11.52;;;;;;;0.84;74.42;99420.97;5002238;28;20044;-57
2023/03/07 03:53:49;;;;;;;27.30;11.40;;;;;;;0.84;74.57;99417.53;4984509;28;20057;-58
2023/03/07 03:56:17;;;;;;;26.52;11.65;;;;;;;0.85;74.64;99406.28;4987803;28;20053;-57
2023/03/07 03:58:46;;;;;;;26.40;11.18;;;;;;;0.88;74.61;99408.75;4991309;28;20062;-58
2023/03/07 04:01:12;;;;;;;27.08;12.90;;;;;;;0.89;74.90;99398.31;4986633;28;20548;-61
2023/03/07 04:03:43;;;;;;;28.38;11.25;;;;;;;0.93;74.82;99393.88;4996163;28;20078;-56
2023/03/07 04:06:11;;;;;;;30.85;12.80;;;;;;;0.96;74.59;99393.75;4987944;28;20033;-55
2023/03/07 04:08:37;;;;;;;27.92;12.18;;;;;;;0.97;74.96;99376.47;4992348;28;20044;-56
2023/03/07 04:11:04;;;;;;;30.85;12.88;;;;;;;0.96;75.15;99365.25;4993416;28;20475;-55
2023/03/07 04:13:31;;;;;;;26.67;11.00;;;;;;;0.99;75.14;99365.13;4986977;28;20069;-53
2023/03/07 04:15:57;;;;;;;32.38;12.57;;;;;;;1.03;75.44;99358.06;4988613;28;20584;-61
2023/03/07 04:18:23;;;;;;;29.17;13.25;;;;;;;1.05;75.37;99351.94;4988810;28;20115;-56
2023/03/07 04:20:50;;;;;;;34.40;13.25;;;;;;;1.07;75.07;99349.28;5001316;28;20435;-57
2023/03/07 04:23:17;;;;;;;34.60;13.63;;;;;;;1.06;74.95;99338.06;4995786;28;20025;-54
2023/03/07 04:25:50;;;;;;;38.92;14.63;;;;;;;1.06;74.89;99326.88;4993458;28;20049;-60
2023/03/07 04:28:17;;;;;;;32.45;13.77;;;;;;;1.05;75.19;99314.81;4992850;28;20525;-57
2023/03/07 04:30:43;;;;;;;29.40;13.70;;;;;;;1.10;75.52;99307.72;4993336;28;20045;-54
2023/03/07 04:33:08;;;;;;;31.65;13.85;;;;;;;1.11;75.29;99304.22;4999515;28;20092;-53
2023/03/07 04:35:34;;;;;;;35.80;13.57;;;;;;;1.13;75.69;99309.31;4989417;28;20403;-61
2023/03/07 04:37:59;;;;;;;35.03;15.10;;;;;;;1.14;75.12;99298.88;4988518;28;20142;-56
2023/03/07 04:40:25;;;;;;;37.20;14.65;;;;;;;1.17;75.44;99292.75;4993364;28;20036;-53
2023/03/07 04:42:50;;;;;;;42.03;17.17;;;;;;;1.18;75.04;99284.91;4991037;28;20072;-60
2023/03/07 04:45:16;;;;;;;35.00;14.18;;;;;;;1.21;75.51;99284.78;4989062;28;20030;-55
2023/03/07 04:47:41;;;;;;;40.03;17.15;;;;;;;1.23;75.61;99282.09;4985439;28;20600;-55
2023/03/07 04:50:07;;;;;;;37.42;16.00;;;;;;;1.24;75.38;99267.41;4993661;28;20115;-56
2023/03/07 04:52:33;;;;;;;44.78;18.40;;;;;;;1.27;75.15;99272.47;4995203;28;20040;-55
2023/03/07 04:54:59;;;;;;;39.00;15.35;;;;;;;1.27;75.71;99256.94;4977158;28;20032;-60
2023/03/07 04:57:24;;;;;;;36.60;15.35;;;;;;;1.31;75.43;99251.53;4993593;28;20119;-55
2023/03/07 04:59:50;;;;;;;38.58;17.08;;;;;;;1.33;75.61;99238.50;4992093;28;20118;-57
2023/03/07 05:02:15;;;;;;;43.20;16.77;;;;;;;1.33;75.90;99241.09;4991369;28;20084;-55
2023/03/07 05:04:41;;;;;;;43.40;18.50;;;;;;;1.35;75.51;99239.28;4996303;28;20099;-56
2023/03/07 05:07:06;;;;;;;36.67;18.40;;;;;;;1.35;75.46;99234.94;4991524;28;20036;-55
2023/03/07 05:09:32;;;;;;;41.83;18.00;;;;;;;1.36;75.47;99228.00;4997845;28;20073;-53
2023/03/07 05:11:57;;;;;;;46.00;18.13;;;;;;;1.37;75.76;99233.09;5003179;28;20049;-54
2023/03/07 05:14:23;;;;;;;43.03;19.10;;;;;;;1.38;75.69;99215.81;4991832;28;20048;-53
2023/03/07 05:16:48;;;;;;;41.42;16.92;;;;;;;1.39;75.49;99206.28;4998551;28;20025;-56
2023/03/07 05:19:13;;;;;;;47.55;17.83;;;;;;;1.38;75.45;99192.50;4998882;28;20056;-58
2023/03/07 05:21:40;;;;;;;44.85;18.27;;;;;;;1.39;75.36;99189.00;4992869;28;20034;-58
2023/03/07 05:24:06;;;;;;;40.47;17.23;;;;;;;1.43;75.88;99190.56;4997351;28;20226;-54
2023/03/07 05:26:32;;;;;;;44.83;17.92;;;;;;;1.46;75.77;99182.59;4989128;28;20203;-62
2023/03/07 05:28:58;;;;;;;44.53;18.27;;;;;;;1.47;75.62;99178.28;4987014;28;20048;-57
2023/03/07 05:31:23;;;;;;;38.90;17.98;;;;;;;1.49;75.58;99163.50;4996148;28;20164;-57
2023/03/07 05:33:49;;;;;;;45.35;19.15;;;;;;;1.51;75.66;99170.28;4994356;28;20106;-57
2023/03/07 05:36:14;;;;;;;42.50;18.63;;;;;;;1.51;75.80;99165.09;4981012;28;20054;-58
2023/03/07 05:38:40;;;;;;;38.92;18.00;;;;;;;1.51;76.21;99157.31;4975157;28;20049;-56
2023/03/07 05:41:05;;;;;;;42.92;17.58;;;;;;;1.49;76.40;99156.56;4989338;28;20626;-58
2023/03/07 05:43:30;;;;;;;44.95;19.63;;;;;;;1.46;76.10;99154.09;4998641;28;20075;-56
2023/03/07 05:45:56;;;;;;;48.83;19.42;;;;;;;1.46;76.25;99151.50;4999737;28;20096;-56
2023/03/07 05:48:21;;;;;;;39.75;16.63;;;;;;;1.42;76.87;99137.03;4992600;28;20096;-54
2023/03/07 05:50:47;;;;;;;46.92;18.60;;;;;;;1.43;76.78;99141.31;4991654;28;20107;-56
2023/03/07 05:53:12;;;;;;;45.10;19.23;;;;;;;1.43;76.35;99132.66;4990408;28;20060;-58
2023/03/07 05:55:38;;;;;;;42.33;17.65;;;;;;;1.42;77.10;99136.16;4993495;28;20105;-55
2023/03/07 05:58:04;;;;;;;43.65;17.85;;;;;;;1.43;77.08;99127.47;4985751;28;20050;-57
2023/03/07 06:00:30;;;;;;;45.35;17.65;;;;;;;1.41;77.08;99119.78;4994093;28;20075;-58
2023/03/07 06:02:56;;;;;;;37.40;17.35;;;;;;;1.42;77.18;99115.44;4986958;28;20155;-55
2023/03/07 06:05:22;;;;;;;39.60;18.98;;;;;;;1.36;77.90;99112.19;4999074;28;20588;-59
2023/03/07 06:07:48;;;;;;;46.55;19.40;;;;;;;1.40;77.50;99101.69;4998779;28;20051;-56
2023/03/07 06:10:14;;;;;;;46.85;17.40;;;;;;;1.39;77.66;99100.00;5003913;28;20135;-57
2023/03/07 06:12:39;;;;;;;39.20;16.17;;;;;;;1.37;77.84;99108.69;5002835;28;20046;-55
2023/03/07 06:15:06;;;;;;;39.15;17.00;;;;;;;1.38;77.80;99099.19;5001148;28;20036;-56
2023/03/07 06:17:31;;;;;;;43.42;16.73;;;;;;;1.42;77.83;99105.91;4998140;28;20036;-56
2023/03/07 06:19:57;;;;;;;39.30;17.05;;;;;;;1.44;77.83;99104.06;5002159;28;20168;-60
2023/03/07 06:22:22;;;;;;;39.47;16.88;;;;;;;1.44;77.65;99104.06;5008897;28;20062;-60
2023/03/07 06:24:48;;;;;;;39.65;17.50;;;;;;;1.42;77.95;99102.47;5001842;28;20404;-55
2023/03/07 06:27:13;;;;;;;35.85;16.00;;;;;;;1.40;78.08;99099.09;4993447;28;20055;-57
2023/03/07 06:29:39;;;;;;;38.95;15.00;;;;;;;1.40;78.54;99097.38;5002617;28;20134;-57
2023/03/07 06:32:04;;;;;;;22.25;9.52;;;;;;;1.37;78.83;99093.16;5000902;28;20041;-57
2023/03/07 06:34:30;;;;;;;35.05;15.65;;;;;;;1.35;79.01;99086.38;4996022;28;20259;-57
2023/03/07 06:36:55;;;;;;;35.88;16.10;;;;;;;1.40;78.27;99092.19;4998815;28;20046;-56
2023/03/07 06:39:21;;;;;;;29.20;14.82;;;;;;;1.41;78.19;99090.41;5002435;28;20050;-53
2023/03/07 06:41:50;;;;;;;28.52;13.88;;;;;;;1.41;78.68;99093.00;4998040;28;20055;-54
2023/03/07 06:44:16;;;;;;;31.27;14.73;;;;;;;1.40;78.28;99081.81;4995242;28;20068;-56
2023/03/07 06:46:43;;;;;;;31.70;13.77;;;;;;;1.44;78.57;99090.28;4996325;28;20046;-54
2023/03/07 06:49:09;;;;;;;32.05;14.60;;;;;;;1.46;78.58;99091.88;4993036;28;20082;-54
2023/03/07 06:51:34;;;;;;;29.27;12.93;;;;;;;1.47;78.88;99088.38;4998347;28;20044;-56
2023/03/07 06:53:59;;;;;;;32.58;13.20;;;;;;;1.49;78.67;99083.16;5000758;28;20385;-54
2023/03/07 06:56:26;;;;;;;24.67;12.15;;;;;;;1.49;78.52;99088.31;4997474;28;20046;-54
2023/03/07 06:58:51;;;;;;;25.30;13.18;;;;;;;1.49;78.65;99089.16;5004414;28;20047;-54
2023/03/07 07:01:19;;;;;;;24.42;11.52;;;;;;;1.52;79.13;99083.81;4999600;28;20050;-55
2023/03/07 07:03:44;;;;;;;26.30;11.20;;;;;;;1.60;78.93;99082.63;4996564;28;20083;-57
2023/03/07 07:06:10;;;;;;;25.45;11.30;;;;;;;1.61;78.68;99076.50;5008612;28;20594;-59
2023/03/07 07:08:35;;;;;;;24.73;10.80;;;;;;;1.58;78.90;99081.88;4997703;28;20394;-57
2023/03/07 07:11:01;;;;;;;25.85;11.30;;;;;;;1.58;78.73;99077.50;5008718;28;20101;-57
2023/03/07 07:13:26;;;;;;;22.85;10.82;;;;;;;1.60;79.27;99074.84;4997550;28;20063;-54
2023/03/07 07:15:52;;;;;;;22.20;9.25;;;;;;;1.62;78.94;99076.47;5001244;28;20047;-58
2023/03/07 07:18:17;;;;;;;20.50;10.00;;;;;;;1.64;78.90;99066.88;5001943;28;20056;-56
2023/03/07 07:20:43;;;;;;;21.48;10.45;;;;;;;1.64;79.15;99078.97;4998315;28;20105;-60
2023/03/07 07:23:08;;;;;;;20.23;10.60;;;;;;;1.67;79.37;99065.88;5005998;28;20538;-54
2023/03/07 07:25:34;;;;;;;20.70;9.57;;;;;;;1.71;79.13;99059.63;5001508;28;20616;-55
2023/03/07 07:27:59;;;;;;;21.55;9.90;;;;;;;1.79;79.16;99057.50;5002196;28;20045;-55
2023/03/07 07:30:25;;;;;;;21.60;9.85;;;;;;;1.89;78.66;99070.84;5000068;28;20045;-58
2023/03/07 07:32:50;;;;;;;18.90;8.90;;;;;;;1.93;78.38;99074.13;4989179;28;20409;-54
2023/03/07 07:35:16;;;;;;;22.95;10.38;;;;;;;2.02;78.43;99062.47;5000590;28;20428;-58
2023/03/07 07:37:42;;;;;;;22.52;10.52;;;;;;;2.05;78.46;99057.13;5006772;28;20038;-60
2023/03/07 07:40:09;;;;;;;19.80;10.32;;;;;;;2.18;78.18;99041.81;4992757;28;20049;-59
2023/03/07 07:42:34;;;;;;;25.20;10.32;;;;;;;2.29;78.01;99061.09;4998340;28;20034;-53
2023/03/07 07:45:00;;;;;;;24.80;10.30;;;;;;;2.43;77.59;99062.13;5002758;28;20065;-56
2023/03/07 07:47:25;;;;;;;25.20;11.52;;;;;;;2.50;77.20;99062.66;5007024;28;20085;-58
2023/03/07 07:49:51;;;;;;;21.60;10.32;;;;;;;2.49;77.18;99061.84;5010223;28;20043;-58
2023/03/07 07:52:16;;;;;;;24.48;11.13;;;;;;;2.53;77.39;99046.94;5000850;28;20070;-59
2023/03/07 07:54:42;;;;;;;24.92;11.43;;;;;;;2.51;77.21;99043.56;4999974;28;20050;-56
2023/03/07 07:57:08;;;;;;;28.00;11.50;;;;;;;2.43;77.59;99051.75;5006143;28;20143;-57
2023/03/07 07:59:33;;;;;;;21.42;10.32;;;;;;;2.40;77.52;99052.75;5004386;28;20045;-58
2023/03/07 08:01:59;;;;;;;27.25;11.77;;;;;;;2.43;77.71;99057.81;4997183;28;20049;-56
2023/03/07 08:04:25;;;;;;;22.02;11.13;;;;;;;2.48;77.65;99061.94;5002739;28;20068;-61
2023/03/07 08:06:51;;;;;;;23.10;10.95;;;;;;;2.44;77.64;99064.66;4999428;28;20057;-57
2023/03/07 08:09:17;;;;;;;29.10;10.90;;;;;;;2.44;77.56;99066.41;5009033;28;20118;-60
2023/03/07 08:11:42;;;;;;;23.80;11.75;;;;;;;2.44;77.65;99069.88;4997374;28;20067;-60
2023/03/07 08:14:08;;;;;;;26.45;12.35;;;;;;;2.44;77.47;99069.88;5005127;28;20056;-58
2023/03/07 08:16:34;;;;;;;24.60;12.57;;;;;;;2.48;77.54;99069.72;4994636;28;20039;-61
2023/03/07 08:19:00;;;;;;;21.00;10.60;;;;;;;2.50;77.71;99065.25;5001893;28;20572;-56
2023/03/07 08:21:25;;;;;;;22.58;12.40;;;;;;;2.50;77.48;99070.44;4996488;28;20121;-60
2023/03/07 08:23:55;;;;;;;25.65;12.38;;;;;;;2.50;77.32;99070.44;5001377;28;20065;-57
2023/03/07 08:26:20;;;;;;;27.75;12.95;;;;;;;2.50;77.64;99067.84;5002497;28;20036;-57
2023/03/07 08:28:46;;;;;;;26.30;11.60;;;;;;;2.54;77.50;99065.03;5008116;28;20048;-55
2023/03/07 08:31:17;;;;;;;21.73;10.15;;;;;;;2.56;77.19;99063.22;5005313;28;20036;-57
2023/03/07 08:33:45;;;;;;;23.52;11.15;;;;;;;2.61;77.48;99065.56;5003853;28;20060;-57
2023/03/07 08:36:12;;;;;;;25.33;12.35;;;;;;;2.70;77.39;99061.66;5003851;28;20083;-54
2023/03/07 08:38:38;;;;;;;27.63;12.27;;;;;;;2.77;77.16;99065.59;5004445;28;20075;-57
2023/03/07 08:41:05;;;;;;;25.55;13.30;;;;;;;2.89;76.69;99056.31;5003100;28;20151;-58
2023/03/07 08:43:32;;;;;;;22.55;9.75;;;;;;;3.05;76.50;99056.34;4996861;28;20060;-54
2023/03/07 08:45:58;;;;;;;23.63;11.80;;;;;;;3.11;75.83;99055.16;5001922;28;20034;-56
2023/03/07 08:48:25;;;;;;;26.13;12.38;;;;;;;3.12;76.24;99054.25;5000447;28;20122;-55
2023/03/07 08:50:51;;;;;;;24.67;12.55;;;;;;;3.14;76.17;99060.19;5004425;28;20107;-56
2023/03/07 08:53:17;;;;;;;29.23;12.52;;;;;;;3.19;76.10;99066.00;5004127;28;20584;-57
2023/03/07 08:55:43;;;;;;;23.30;11.48;;;;;;;3.25;75.94;99062.22;5000491;28;20052;-59
2023/03/07 08:58:09;;;;;;;15.88;7.25;;;;;;;3.34;76.14;99057.38;5002003;28;20044;-57
2023/03/07 09:00:35;;;;;;;13.43;6.97;;;;;;;3.48;75.76;99063.56;4999328;28;20026;-55
2023/03/07 09:03:01;;;;;;;25.88;10.68;;;;;;;3.54;75.44;99062.38;5010116;28;20034;-57
2023/03/07 09:05:29;;;;;;;24.17;11.40;;;;;;;3.60;75.19;99069.84;5000716;28;20073;-57
2023/03/07 09:07:55;;;;;;;25.77;11.18;;;;;;;3.70;75.02;99059.78;5005546;28;20044;-58
2023/03/07 09:10:21;;;;;;;21.92;11.23;;;;;;;3.79;74.63;99064.44;5005874;28;20117;-58
2023/03/07 09:12:48;;;;;;;20.13;10.52;;;;;;;3.88;74.71;99050.91;4998164;28;20029;-57
2023/03/07 09:15:14;;;;;;;22.77;10.48;;;;;;;4.01;74.13;99053.66;5004282;28;20045;-58
2023/03/07 09:17:39;;;;;;;23.17;10.55;;;;;;;4.14;73.84;99051.19;5001279;28;26911;-57
2023/03/07 09:20:06;;;;;;;18.92;10.05;;;;;;;4.16;73.57;99051.91;5006249;28;20048;-57
2023/03/07 09:22:31;;;;;;;21.30;9.88;;;;;;;4.17;73.41;99047.56;5002818;28;20068;-57
2023/03/07 09:24:57;;;;;;;20.65;10.95;;;;;;;4.08;73.81;99039.34;5004728;28;20149;-55
2023/03/07 09:27:22;;;;;;;24.25;10.60;;;;;;;4.01;73.99;99039.81;4994252;28;20475;-57
2023/03/07 09:29:48;;;;;;;19.90;9.93;;;;;;;3.91;74.14;99022.13;4997344;28;20041;-54
2023/03/07 09:32:13;;;;;;;23.48;11.25;;;;;;;3.81;74.21;99013.16;5007032;28;20088;-55
2023/03/07 09:34:39;;;;;;;15.82;7.72;;;;;;;3.76;74.38;99002.19;5004246;28;20479;-59
2023/03/07 09:37:05;;;;;;;18.00;9.25;;;;;;;3.74;74.25;99017.03;5010560;28;20104;-59
2023/03/07 09:39:31;;;;;;;17.90;9.65;;;;;;;3.79;74.20;99009.81;5000219;28;20030;-58
2023/03/07 09:42:10;;;;;;;21.20;9.48;;;;;;;3.90;74.10;99010.03;4997917;28;20062;-57
2023/03/07 09:44:48;;;;;;;15.02;8.45;;;;;;;4.06;73.37;99009.13;4997796;28;20031;-59
2023/03/07 09:47:27;;;;;;;17.50;6.85;;;;;;;4.23;73.24;99013.38;5000901;28;20030;-58
2023/03/07 09:49:53;;;;;;;16.45;8.00;;;;;;;4.26;72.90;99011.41;5006829;28;20022;-55
2023/03/07 09:52:30;;;;;;;14.65;7.03;;;;;;;4.31;72.77;99012.91;4995846;28;20029;-61
2023/03/07 09:55:01;;;;;;;12.68;6.85;;;;;;;4.38;72.45;99029.84;4992105;28;20109;-57
2023/03/07 09:57:46;;;;;;;12.93;5.53;;;;;;;4.36;72.17;99021.28;4995480;28;20117;-57
2023/03/07 10:00:35;;;;;;;15.75;7.22;;;;;;;4.37;72.34;99033.38;5001574;28;20033;-57
2023/03/07 10:03:19;;;;;;;14.85;7.70;;;;;;;4.43;71.91;99027.81;5002345;28;20041;-57
2023/03/07 10:05:48;;;;;;;20.02;7.75;;;;;;;4.65;71.70;99037.75;4998687;28;20135;-54
2023/03/07 10:08:28;;;;;;;12.30;6.28;;;;;;;4.71;71.49;99028.75;5000030;28;20030;-55
2023/03/07 10:11:03;;;;;;;14.77;7.20;;;;;;;4.64;71.65;99030.03;5001077;28;20037;-55
2023/03/07 10:14:03;;;;;;;13.93;6.80;;;;;;;4.53;71.14;99039.34;4993783;28;20218;-57
2023/03/07 10:16:47;;;;;;;12.80;6.70;;;;;;;4.51;71.57;99041.19;4999151;28;20571;-56
2023/03/07 10:19:28;;;;;;;15.52;6.93;;;;;;;4.47;71.72;99044.91;4994795;28;20072;-53
2023/03/07 10:21:56;;;;;;;17.25;6.35;;;;;;;4.52;71.54;99034.22;5000342;28;20028;-54
2023/03/07 10:24:33;;;;;;;11.43;5.80;;;;;;;4.57;70.79;99035.63;4992584;28;20042;-57
2023/03/07 10:27:06;;;;;;;14.20;6.82;;;;;;;4.69;71.03;99041.00;5001199;28;20059;-56
2023/03/07 10:29:35;;;;;;;14.27;6.45;;;;;;;4.73;70.83;99034.69;4989590;28;20789;-53
2023/03/07 10:32:38;;;;;;;11.70;5.88;;;;;;;4.79;70.69;99039.50;4999642;28;20570;-54
2023/03/07 10:35:10;;;;;;;11.27;5.22;;;;;;;4.97;69.12;99034.09;4992643;28;20095;-56
2023/03/07 10:37:42;;;;;;;13.93;5.77;;;;;;;4.98;69.17;99038.38;4981876;28;20056;-54
2023/03/07 10:40:21;;;;;;;16.33;5.60;;;;;;;5.08;69.00;99042.09;4986745;28;20034;-54
2023/03/07 10:42:47;;;;;;;11.30;4.97;;;;;;;5.11;68.49;99018.44;4990628;28;20026;-55
2023/03/07 10:45:14;;;;;;;11.02;4.88;;;;;;;5.18;68.25;99034.53;4990512;28;20069;-57
2023/03/07 10:47:39;;;;;;;11.23;5.43;;;;;;;5.06;68.41;99020.53;4993877;28;20041;-56
2023/03/07 10:50:20;;;;;;;12.27;5.03;;;;;;;4.92;68.67;99028.34;4990267;28;20037;-55
2023/03/07 10:52:52;;;;;;;9.13;4.65;;;;;;;4.88;68.82;99019.88;4983967;28;20408;-56
2023/03/07 10:55:43;;;;;;;9.82;4.30;;;;;;;4.99;67.67;99008.78;4997302;28;20065;-56
2023/03/07 10:58:18;;;;;;;9.20;3.92;;;;;;;5.17;67.87;99012.00;4992910;28;20033;-55
2023/03/07 11:00:45;;;;;;;11.13;4.68;;;;;;;5.29;67.88;99010.41;4992843;28;20497;-56
2023/03/07 11:03:25;;;;;;;9.63;3.80;;;;;;;5.44;67.57;99006.81;4995448;28;20022;-59
2023/03/07 11:05:51;;;;;;;10.13;4.40;;;;;;;5.59;67.17;99001.53;4993880;28;20040;-55
2023/03/07 11:08:35;;;;;;;7.57;3.20;;;;;;;5.72;66.18;98991.97;4989432;28;21449;-56
2023/03/07 11:11:04;;;;;;;10.48;4.30;;;;;;;5.85;66.14;98991.16;4992902;28;20034;-54
2023/03/07 11:13:30;;;;;;;11.60;3.85;;;;;;;5.97;66.00;98992.97;4993453;28;20033;-54
2023/03/07 11:16:28;;;;;;;8.40;3.55;;;;;;;6.00;65.40;98992.78;4999586;28;20029;-56
2023/03/07 11:18:54;;;;;;;7.70;3.30;;;;;;;6.08;66.03;98984.44;4946504;28;21138;-56
2023/03/07 11:21:35;;;;;;;9.23;3.53;;;;;;;6.12;64.21;99008.59;4954681;28;20578;-57
2023/03/07 11:24:24;;;;;;;7.63;3.17;;;;;;;6.12;64.85;98972.03;4979944;28;20034;-58
2023/03/07 11:26:54;;;;;;;7.30;3.03;;;;;;;6.20;65.04;98974.94;4985416;28;20061;-58
2023/03/07 11:29:19;;;;;;;7.47;2.72;;;;;;;6.16;64.34;98974.31;4988426;28;20061;-58